sensor_id;sensor_type;location;lat;lon;timestamp;P1;durP1;ratioP1;P2;durP2;ratioP2
76591;SDS011;65481;47.600;19.682;2023-03-05T00:03:14;107.60;;;50.13;;
76591;SDS011;65481;47.600;19.682;2023-03-05T00:08:15;91.40;;;40.72;;
76591;SDS011;65481;47.600;19.682;2023-03-05T00:13:16;21.77;;;11.98;;
76591;SDS011;65481;47.600;19.682;2023-03-05T00:18:16;16.38;;;8.93;;
76591;SDS011;65481;47.600;19.682;2023-03-05T00:23:17;16.95;;;10.07;;
76591;SDS011;65481;47.600;19.682;2023-03-05T00:28:17;23.75;;;10.60;;
76591;SDS011;65481;47.600;19.682;2023-03-05T00:33:18;17.77;;;9.15;;
76591;SDS011;65481;47.600;19.682;2023-03-05T00:38:18;17.75;;;8.93;;
76591;SDS011;65481;47.600;19.682;2023-03-05T00:43:19;24.38;;;11.95;;
76591;SDS011;65481;47.600;19.682;2023-03-05T00:48:19;18.55;;;8.63;;
76591;SDS011;65481;47.600;19.682;2023-03-05T00:53:21;19.00;;;10.10;;
76591;SDS011;65481;47.600;19.682;2023-03-05T00:58:22;19.75;;;10.45;;
76591;SDS011;65481;47.600;19.682;2023-03-05T01:03:23;22.40;;;10.75;;
76591;SDS011;65481;47.600;19.682;2023-03-05T01:08:24;16.45;;;8.90;;
76591;SDS011;65481;47.600;19.682;2023-03-05T01:13:25;13.68;;;8.18;;
76591;SDS011;65481;47.600;19.682;2023-03-05T01:18:25;16.55;;;9.27;;
76591;SDS011;65481;47.600;19.682;2023-03-05T01:23:26;16.00;;;8.27;;
76591;SDS011;65481;47.600;19.682;2023-03-05T01:28:26;14.98;;;8.15;;
76591;SDS011;65481;47.600;19.682;2023-03-05T01:33:27;16.38;;;8.40;;
76591;SDS011;65481;47.600;19.682;2023-03-05T01:38:28;18.77;;;8.27;;
76591;SDS011;65481;47.600;19.682;2023-03-05T01:43:29;18.50;;;9.85;;
76591;SDS011;65481;47.600;19.682;2023-03-05T01:48:30;21.20;;;9.15;;
76591;SDS011;65481;47.600;19.682;2023-03-05T01:53:30;15.43;;;8.52;;
76591;SDS011;65481;47.600;19.682;2023-03-05T01:58:31;17.60;;;8.63;;
76591;SDS011;65481;47.600;19.682;2023-03-05T02:03:32;15.40;;;7.30;;
76591;SDS011;65481;47.600;19.682;2023-03-05T02:08:34;18.30;;;9.00;;
76591;SDS011;65481;47.600;19.682;2023-03-05T02:13:34;14.88;;;8.48;;
76591;SDS011;65481;47.600;19.682;2023-03-05T02:18:39;18.30;;;9.40;;
76591;SDS011;65481;47.600;19.682;2023-03-05T02:23:40;20.48;;;9.55;;
76591;SDS011;65481;47.600;19.682;2023-03-05T02:28:51;20.83;;;9.68;;
76591;SDS011;65481;47.600;19.682;2023-03-05T02:33:56;16.02;;;8.00;;
76591;SDS011;65481;47.600;19.682;2023-03-05T02:38:56;18.02;;;8.32;;
76591;SDS011;65481;47.600;19.682;2023-03-05T02:43:58;16.23;;;7.97;;
76591;SDS011;65481;47.600;19.682;2023-03-05T02:48:58;15.75;;;8.77;;
76591;SDS011;65481;47.600;19.682;2023-03-05T02:53:59;14.30;;;7.95;;
76591;SDS011;65481;47.600;19.682;2023-03-05T02:58:59;16.48;;;9.02;;
76591;SDS011;65481;47.600;19.682;2023-03-05T03:04:00;13.80;;;7.55;;
76591;SDS011;65481;47.600;19.682;2023-03-05T03:09:00;19.75;;;9.48;;
76591;SDS011;65481;47.600;19.682;2023-03-05T03:14:01;14.48;;;7.72;;
76591;SDS011;65481;47.600;19.682;2023-03-05T03:19:01;19.80;;;8.57;;
76591;SDS011;65481;47.600;19.682;2023-03-05T03:24:02;14.95;;;7.72;;
76591;SDS011;65481;47.600;19.682;2023-03-05T03:29:03;17.33;;;8.93;;
76591;SDS011;65481;47.600;19.682;2023-03-05T03:34:03;18.55;;;9.30;;
76591;SDS011;65481;47.600;19.682;2023-03-05T03:39:04;17.65;;;9.73;;
76591;SDS011;65481;47.600;19.682;2023-03-05T03:44:05;19.92;;;10.23;;
76591;SDS011;65481;47.600;19.682;2023-03-05T03:49:11;19.77;;;10.25;;
76591;SDS011;65481;47.600;19.682;2023-03-05T03:54:15;19.38;;;9.70;;
76591;SDS011;65481;47.600;19.682;2023-03-05T03:59:18;20.85;;;10.25;;
76591;SDS011;65481;47.600;19.682;2023-03-05T04:04:18;16.80;;;10.35;;
76591;SDS011;65481;47.600;19.682;2023-03-05T04:09:19;18.73;;;9.27;;
76591;SDS011;65481;47.600;19.682;2023-03-05T04:14:19;17.30;;;9.65;;
76591;SDS011;65481;47.600;19.682;2023-03-05T04:19:20;15.55;;;8.63;;
76591;SDS011;65481;47.600;19.682;2023-03-05T04:24:21;20.42;;;9.73;;
76591;SDS011;65481;47.600;19.682;2023-03-05T04:29:21;16.95;;;9.30;;
76591;SDS011;65481;47.600;19.682;2023-03-05T04:34:22;21.17;;;10.18;;
76591;SDS011;65481;47.600;19.682;2023-03-05T04:39:22;19.42;;;10.35;;
76591;SDS011;65481;47.600;19.682;2023-03-05T04:44:23;29.15;;;12.93;;
76591;SDS011;65481;47.600;19.682;2023-03-05T04:49:25;23.60;;;12.35;;
76591;SDS011;65481;47.600;19.682;2023-03-05T04:54:25;21.52;;;10.60;;
76591;SDS011;65481;47.600;19.682;2023-03-05T04:59:26;25.10;;;12.30;;
76591;SDS011;65481;47.600;19.682;2023-03-05T05:04:26;18.73;;;9.93;;
76591;SDS011;65481;47.600;19.682;2023-03-05T05:09:27;18.05;;;10.57;;
76591;SDS011;65481;47.600;19.682;2023-03-05T05:14:27;16.38;;;8.82;;
76591;SDS011;65481;47.600;19.682;2023-03-05T05:19:28;17.65;;;9.10;;
76591;SDS011;65481;47.600;19.682;2023-03-05T05:24:29;21.35;;;10.95;;
76591;SDS011;65481;47.600;19.682;2023-03-05T05:29:29;19.92;;;9.10;;
76591;SDS011;65481;47.600;19.682;2023-03-05T05:34:30;17.27;;;7.93;;
76591;SDS011;65481;47.600;19.682;2023-03-05T05:39:30;16.02;;;9.20;;
76591;SDS011;65481;47.600;19.682;2023-03-05T05:44:31;19.95;;;9.40;;
76591;SDS011;65481;47.600;19.682;2023-03-05T05:49:34;20.73;;;9.60;;
76591;SDS011;65481;47.600;19.682;2023-03-05T05:54:34;20.13;;;9.98;;
76591;SDS011;65481;47.600;19.682;2023-03-05T05:59:35;17.35;;;8.70;;
76591;SDS011;65481;47.600;19.682;2023-03-05T06:04:36;16.98;;;9.00;;
76591;SDS011;65481;47.600;19.682;2023-03-05T06:09:39;19.23;;;9.73;;
76591;SDS011;65481;47.600;19.682;2023-03-05T06:14:39;24.55;;;10.55;;
76591;SDS011;65481;47.600;19.682;2023-03-05T06:19:40;16.90;;;9.35;;
76591;SDS011;65481;47.600;19.682;2023-03-05T06:24:40;16.33;;;9.68;;
76591;SDS011;65481;47.600;19.682;2023-03-05T06:29:41;15.52;;;9.07;;
76591;SDS011;65481;47.600;19.682;2023-03-05T06:34:41;20.55;;;10.68;;
76591;SDS011;65481;47.600;19.682;2023-03-05T06:39:41;16.08;;;8.77;;
76591;SDS011;65481;47.600;19.682;2023-03-05T06:44:42;16.05;;;8.27;;
76591;SDS011;65481;47.600;19.682;2023-03-05T06:49:43;17.38;;;8.43;;
76591;SDS011;65481;47.600;19.682;2023-03-05T06:54:43;18.45;;;8.82;;
76591;SDS011;65481;47.600;19.682;2023-03-05T06:59:43;14.27;;;7.78;;
76591;SDS011;65481;47.600;19.682;2023-03-05T07:04:44;15.48;;;9.25;;
76591;SDS011;65481;47.600;19.682;2023-03-05T07:09:45;14.60;;;8.30;;
76591;SDS011;65481;47.600;19.682;2023-03-05T07:14:47;16.85;;;8.40;;
76591;SDS011;65481;47.600;19.682;2023-03-05T07:19:47;15.98;;;8.63;;
76591;SDS011;65481;47.600;19.682;2023-03-05T07:24:48;16.33;;;8.35;;
76591;SDS011;65481;47.600;19.682;2023-03-05T07:29:49;17.38;;;8.25;;
76591;SDS011;65481;47.600;19.682;2023-03-05T07:34:49;14.82;;;8.30;;
76591;SDS011;65481;47.600;19.682;2023-03-05T07:39:50;14.15;;;7.70;;
76591;SDS011;65481;47.600;19.682;2023-03-05T07:44:50;15.43;;;8.38;;
76591;SDS011;65481;47.600;19.682;2023-03-05T07:49:52;17.83;;;9.70;;
76591;SDS011;65481;47.600;19.682;2023-03-05T07:54:52;18.67;;;9.60;;
76591;SDS011;65481;47.600;19.682;2023-03-05T07:59:53;16.73;;;8.60;;
76591;SDS011;65481;47.600;19.682;2023-03-05T08:04:53;16.60;;;9.00;;
76591;SDS011;65481;47.600;19.682;2023-03-05T08:09:54;18.48;;;9.05;;
76591;SDS011;65481;47.600;19.682;2023-03-05T08:14:54;16.27;;;9.07;;
76591;SDS011;65481;47.600;19.682;2023-03-05T08:19:55;19.77;;;9.98;;
76591;SDS011;65481;47.600;19.682;2023-03-05T08:24:59;15.98;;;9.27;;
76591;SDS011;65481;47.600;19.682;2023-03-05T08:30:01;16.85;;;9.02;;
76591;SDS011;65481;47.600;19.682;2023-03-05T08:35:02;14.60;;;8.75;;
76591;SDS011;65481;47.600;19.682;2023-03-05T08:40:03;18.92;;;10.07;;
76591;SDS011;65481;47.600;19.682;2023-03-05T08:45:05;17.80;;;9.80;;
76591;SDS011;65481;47.600;19.682;2023-03-05T08:50:08;14.55;;;8.48;;
76591;SDS011;65481;47.600;19.682;2023-03-05T08:55:10;14.75;;;9.20;;
76591;SDS011;65481;47.600;19.682;2023-03-05T09:00:11;20.23;;;10.93;;
76591;SDS011;65481;47.600;19.682;2023-03-05T09:05:13;22.55;;;11.40;;
76591;SDS011;65481;47.600;19.682;2023-03-05T09:10:13;17.77;;;9.40;;
76591;SDS011;65481;47.600;19.682;2023-03-05T09:15:14;18.20;;;10.30;;
76591;SDS011;65481;47.600;19.682;2023-03-05T09:20:14;16.05;;;8.80;;
76591;SDS011;65481;47.600;19.682;2023-03-05T09:25:15;20.75;;;10.70;;
76591;SDS011;65481;47.600;19.682;2023-03-05T09:30:16;19.95;;;9.38;;
76591;SDS011;65481;47.600;19.682;2023-03-05T09:35:17;22.70;;;10.38;;
76591;SDS011;65481;47.600;19.682;2023-03-05T09:40:18;17.80;;;9.73;;
76591;SDS011;65481;47.600;19.682;2023-03-05T09:45:27;16.90;;;9.43;;
76591;SDS011;65481;47.600;19.682;2023-03-05T09:50:34;17.38;;;7.88;;
76591;SDS011;65481;47.600;19.682;2023-03-05T09:56:17;13.15;;;7.47;;
76591;SDS011;65481;47.600;19.682;2023-03-05T10:01:19;16.98;;;8.52;;
76591;SDS011;65481;47.600;19.682;2023-03-05T10:06:23;14.50;;;7.22;;
76591;SDS011;65481;47.600;19.682;2023-03-05T10:11:29;12.70;;;7.53;;
76591;SDS011;65481;47.600;19.682;2023-03-05T10:21:39;15.57;;;7.03;;
76591;SDS011;65481;47.600;19.682;2023-03-05T10:37:34;9.18;;;5.95;;
76591;SDS011;65481;47.600;19.682;2023-03-05T10:42:46;12.15;;;7.38;;
76591;SDS011;65481;47.600;19.682;2023-03-05T10:58:25;13.75;;;8.30;;
76591;SDS011;65481;47.600;19.682;2023-03-05T11:03:41;13.20;;;7.72;;
76591;SDS011;65481;47.600;19.682;2023-03-05T11:08:50;15.07;;;8.82;;
76591;SDS011;65481;47.600;19.682;2023-03-05T11:14:00;23.40;;;14.18;;
76591;SDS011;65481;47.600;19.682;2023-03-05T11:24:22;17.60;;;10.73;;
76591;SDS011;65481;47.600;19.682;2023-03-05T11:29:26;11.80;;;6.32;;
76591;SDS011;65481;47.600;19.682;2023-03-05T11:34:30;12.55;;;6.80;;
76591;SDS011;65481;47.600;19.682;2023-03-05T11:39:34;8.80;;;5.07;;
76591;SDS011;65481;47.600;19.682;2023-03-05T11:44:48;10.77;;;5.13;;
76591;SDS011;65481;47.600;19.682;2023-03-05T11:49:53;12.85;;;5.47;;
76591;SDS011;65481;47.600;19.682;2023-03-05T12:00:15;10.50;;;5.68;;
76591;SDS011;65481;47.600;19.682;2023-03-05T12:05:20;9.82;;;5.15;;
76591;SDS011;65481;47.600;19.682;2023-03-05T12:10:22;7.82;;;4.50;;
76591;SDS011;65481;47.600;19.682;2023-03-05T12:25:53;7.40;;;5.18;;
76591;SDS011;65481;47.600;19.682;2023-03-05T12:30:58;11.75;;;6.45;;
76591;SDS011;65481;47.600;19.682;2023-03-05T12:41:32;20.45;;;10.63;;
76591;SDS011;65481;47.600;19.682;2023-03-05T12:52:03;12.55;;;5.95;;
76591;SDS011;65481;47.600;19.682;2023-03-05T13:07:35;17.88;;;9.70;;
76591;SDS011;65481;47.600;19.682;2023-03-05T13:12:35;26.25;;;13.82;;
76591;SDS011;65481;47.600;19.682;2023-03-05T13:18:11;16.25;;;9.05;;
76591;SDS011;65481;47.600;19.682;2023-03-05T13:23:23;14.52;;;8.18;;
76591;SDS011;65481;47.600;19.682;2023-03-05T13:28:26;16.35;;;8.98;;
76591;SDS011;65481;47.600;19.682;2023-03-05T13:33:32;13.57;;;7.38;;
76591;SDS011;65481;47.600;19.682;2023-03-05T13:38:36;11.82;;;6.80;;
76591;SDS011;65481;47.600;19.682;2023-03-05T13:43:43;13.75;;;6.95;;
76591;SDS011;65481;47.600;19.682;2023-03-05T13:48:48;14.00;;;8.02;;
76591;SDS011;65481;47.600;19.682;2023-03-05T13:53:49;8.65;;;5.70;;
76591;SDS011;65481;47.600;19.682;2023-03-05T13:58:54;9.75;;;6.13;;
76591;SDS011;65481;47.600;19.682;2023-03-05T14:03:57;10.93;;;6.40;;
76591;SDS011;65481;47.600;19.682;2023-03-05T14:09:06;9.87;;;5.90;;
76591;SDS011;65481;47.600;19.682;2023-03-05T14:14:17;12.48;;;6.07;;
76591;SDS011;65481;47.600;19.682;2023-03-05T14:19:33;12.13;;;6.10;;
76591;SDS011;65481;47.600;19.682;2023-03-05T14:24:36;10.80;;;6.33;;
76591;SDS011;65481;47.600;19.682;2023-03-05T14:29:36;21.27;;;9.80;;
76591;SDS011;65481;47.600;19.682;2023-03-05T14:34:42;17.50;;;8.15;;
76591;SDS011;65481;47.600;19.682;2023-03-05T14:39:56;13.90;;;7.93;;
76591;SDS011;65481;47.600;19.682;2023-03-05T14:45:13;11.15;;;6.13;;
76591;SDS011;65481;47.600;19.682;2023-03-05T14:50:20;11.02;;;4.75;;
76591;SDS011;65481;47.600;19.682;2023-03-05T14:55:24;11.63;;;6.20;;
76591;SDS011;65481;47.600;19.682;2023-03-05T15:00:29;16.63;;;9.43;;
76591;SDS011;65481;47.600;19.682;2023-03-05T15:05:31;8.98;;;5.28;;
76591;SDS011;65481;47.600;19.682;2023-03-05T15:10:32;9.90;;;4.07;;
76591;SDS011;65481;47.600;19.682;2023-03-05T15:15:33;7.82;;;4.32;;
76591;SDS011;65481;47.600;19.682;2023-03-05T15:20:34;7.50;;;4.30;;
76591;SDS011;65481;47.600;19.682;2023-03-05T15:25:36;5.68;;;3.38;;
76591;SDS011;65481;47.600;19.682;2023-03-05T15:30:38;6.85;;;3.42;;
76591;SDS011;65481;47.600;19.682;2023-03-05T15:35:42;8.82;;;4.60;;
76591;SDS011;65481;47.600;19.682;2023-03-05T15:40:43;14.13;;;5.90;;
76591;SDS011;65481;47.600;19.682;2023-03-05T15:45:45;10.55;;;6.18;;
76591;SDS011;65481;47.600;19.682;2023-03-05T15:50:47;8.00;;;4.15;;
76591;SDS011;65481;47.600;19.682;2023-03-05T15:55:51;7.07;;;3.80;;
76591;SDS011;65481;47.600;19.682;2023-03-05T16:00:52;41.72;;;19.25;;
76591;SDS011;65481;47.600;19.682;2023-03-05T16:05:54;15.55;;;7.40;;
76591;SDS011;65481;47.600;19.682;2023-03-05T16:10:55;11.32;;;6.25;;
76591;SDS011;65481;47.600;19.682;2023-03-05T16:15:56;14.63;;;7.00;;
76591;SDS011;65481;47.600;19.682;2023-03-05T16:20:58;25.35;;;12.38;;
76591;SDS011;65481;47.600;19.682;2023-03-05T16:25:59;11.80;;;8.13;;
76591;SDS011;65481;47.600;19.682;2023-03-05T16:31:00;17.13;;;7.45;;
76591;SDS011;65481;47.600;19.682;2023-03-05T16:41:20;22.52;;;15.00;;
76591;SDS011;65481;47.600;19.682;2023-03-05T16:46:24;10.77;;;5.65;;
76591;SDS011;65481;47.600;19.682;2023-03-05T16:51:26;11.25;;;6.03;;
76591;SDS011;65481;47.600;19.682;2023-03-05T16:56:27;7.40;;;4.65;;
76591;SDS011;65481;47.600;19.682;2023-03-05T17:01:28;8.55;;;5.80;;
76591;SDS011;65481;47.600;19.682;2023-03-05T17:06:30;10.43;;;6.03;;
76591;SDS011;65481;47.600;19.682;2023-03-05T17:11:33;9.73;;;6.65;;
76591;SDS011;65481;47.600;19.682;2023-03-05T17:16:34;12.63;;;7.80;;
76591;SDS011;65481;47.600;19.682;2023-03-05T17:21:36;10.93;;;6.63;;
76591;SDS011;65481;47.600;19.682;2023-03-05T17:26:37;13.23;;;6.80;;
76591;SDS011;65481;47.600;19.682;2023-03-05T17:31:38;11.80;;;7.35;;
76591;SDS011;65481;47.600;19.682;2023-03-05T17:36:39;12.75;;;5.97;;
76591;SDS011;65481;47.600;19.682;2023-03-05T17:41:40;13.95;;;5.05;;
76591;SDS011;65481;47.600;19.682;2023-03-05T17:46:42;7.03;;;4.80;;
76591;SDS011;65481;47.600;19.682;2023-03-05T17:51:44;8.07;;;4.40;;
76591;SDS011;65481;47.600;19.682;2023-03-05T17:56:46;8.80;;;4.43;;
76591;SDS011;65481;47.600;19.682;2023-03-05T18:01:47;11.13;;;5.13;;
76591;SDS011;65481;47.600;19.682;2023-03-05T18:06:48;12.40;;;6.40;;
76591;SDS011;65481;47.600;19.682;2023-03-05T18:11:50;12.50;;;6.28;;
76591;SDS011;65481;47.600;19.682;2023-03-05T18:16:51;12.77;;;5.68;;
76591;SDS011;65481;47.600;19.682;2023-03-05T18:21:53;14.10;;;5.90;;
76591;SDS011;65481;47.600;19.682;2023-03-05T18:26:54;10.35;;;5.38;;
76591;SDS011;65481;47.600;19.682;2023-03-05T18:31:55;21.08;;;10.25;;
76591;SDS011;65481;47.600;19.682;2023-03-05T18:36:56;11.80;;;6.30;;
76591;SDS011;65481;47.600;19.682;2023-03-05T18:41:59;20.95;;;10.90;;
76591;SDS011;65481;47.600;19.682;2023-03-05T18:47:01;10.98;;;5.40;;
76591;SDS011;65481;47.600;19.682;2023-03-05T18:52:03;8.68;;;4.95;;
76591;SDS011;65481;47.600;19.682;2023-03-05T18:57:05;9.30;;;5.28;;
76591;SDS011;65481;47.600;19.682;2023-03-05T19:02:12;10.63;;;6.30;;
76591;SDS011;65481;47.600;19.682;2023-03-05T19:07:14;10.52;;;6.88;;
76591;SDS011;65481;47.600;19.682;2023-03-05T19:12:18;9.30;;;4.88;;
76591;SDS011;65481;47.600;19.682;2023-03-05T19:17:19;8.05;;;4.30;;
76591;SDS011;65481;47.600;19.682;2023-03-05T19:22:20;8.32;;;4.45;;
76591;SDS011;65481;47.600;19.682;2023-03-05T19:27:22;7.03;;;3.88;;
76591;SDS011;65481;47.600;19.682;2023-03-05T19:32:23;10.15;;;3.85;;
76591;SDS011;65481;47.600;19.682;2023-03-05T19:37:26;9.20;;;4.57;;
76591;SDS011;65481;47.600;19.682;2023-03-05T19:42:28;8.13;;;4.30;;
76591;SDS011;65481;47.600;19.682;2023-03-05T19:47:29;8.30;;;4.28;;
76591;SDS011;65481;47.600;19.682;2023-03-05T19:52:34;8.98;;;4.38;;
76591;SDS011;65481;47.600;19.682;2023-03-05T19:57:35;7.18;;;4.40;;
76591;SDS011;65481;47.600;19.682;2023-03-05T20:02:36;8.38;;;4.55;;
76591;SDS011;65481;47.600;19.682;2023-03-05T20:07:37;7.47;;;3.65;;
76591;SDS011;65481;47.600;19.682;2023-03-05T20:12:38;6.07;;;4.13;;
76591;SDS011;65481;47.600;19.682;2023-03-05T20:17:42;7.18;;;4.20;;
76591;SDS011;65481;47.600;19.682;2023-03-05T20:22:46;10.68;;;4.65;;
76591;SDS011;65481;47.600;19.682;2023-03-05T20:27:47;10.23;;;4.93;;
76591;SDS011;65481;47.600;19.682;2023-03-05T20:32:50;10.43;;;4.80;;
76591;SDS011;65481;47.600;19.682;2023-03-05T20:37:52;8.00;;;4.70;;
76591;SDS011;65481;47.600;19.682;2023-03-05T20:43:22;10.23;;;4.90;;
76591;SDS011;65481;47.600;19.682;2023-03-05T20:48:23;10.98;;;4.75;;
76591;SDS011;65481;47.600;19.682;2023-03-05T20:53:29;10.07;;;4.82;;
76591;SDS011;65481;47.600;19.682;2023-03-05T20:58:30;9.52;;;4.57;;
76591;SDS011;65481;47.600;19.682;2023-03-05T21:03:31;10.25;;;4.65;;
76591;SDS011;65481;47.600;19.682;2023-03-05T21:08:32;7.40;;;4.40;;
76591;SDS011;65481;47.600;19.682;2023-03-05T21:13:33;9.43;;;5.45;;
76591;SDS011;65481;47.600;19.682;2023-03-05T21:18:34;9.93;;;4.45;;
76591;SDS011;65481;47.600;19.682;2023-03-05T21:23:36;10.73;;;5.50;;
76591;SDS011;65481;47.600;19.682;2023-03-05T21:28:37;10.82;;;5.00;;
76591;SDS011;65481;47.600;19.682;2023-03-05T21:33:39;8.50;;;4.55;;
76591;SDS011;65481;47.600;19.682;2023-03-05T21:38:40;7.40;;;4.30;;
76591;SDS011;65481;47.600;19.682;2023-03-05T21:43:40;10.07;;;4.93;;
76591;SDS011;65481;47.600;19.682;2023-03-05T21:48:41;12.45;;;6.00;;
76591;SDS011;65481;47.600;19.682;2023-03-05T21:53:42;13.35;;;6.85;;
76591;SDS011;65481;47.600;19.682;2023-03-05T21:58:42;16.50;;;8.43;;
76591;SDS011;65481;47.600;19.682;2023-03-05T22:03:43;14.40;;;7.75;;
76591;SDS011;65481;47.600;19.682;2023-03-05T22:08:44;11.07;;;6.93;;
76591;SDS011;65481;47.600;19.682;2023-03-05T22:13:46;11.63;;;6.40;;
76591;SDS011;65481;47.600;19.682;2023-03-05T22:18:47;11.60;;;6.22;;
76591;SDS011;65481;47.600;19.682;2023-03-05T22:23:47;11.70;;;6.68;;
76591;SDS011;65481;47.600;19.682;2023-03-05T22:28:49;9.10;;;5.90;;
76591;SDS011;65481;47.600;19.682;2023-03-05T22:33:49;11.25;;;5.43;;
76591;SDS011;65481;47.600;19.682;2023-03-05T22:38:50;11.43;;;5.97;;
76591;SDS011;65481;47.600;19.682;2023-03-05T22:43:51;11.43;;;5.75;;
76591;SDS011;65481;47.600;19.682;2023-03-05T22:48:51;14.18;;;6.63;;
76591;SDS011;65481;47.600;19.682;2023-03-05T22:53:52;11.82;;;6.38;;
76591;SDS011;65481;47.600;19.682;2023-03-05T22:58:53;10.27;;;5.38;;
76591;SDS011;65481;47.600;19.682;2023-03-05T23:03:53;9.70;;;5.85;;
76591;SDS011;65481;47.600;19.682;2023-03-05T23:09:02;9.63;;;5.50;;
76591;SDS011;65481;47.600;19.682;2023-03-05T23:14:02;8.55;;;5.47;;
76591;SDS011;65481;47.600;19.682;2023-03-05T23:19:03;11.38;;;6.50;;
76591;SDS011;65481;47.600;19.682;2023-03-05T23:24:03;12.25;;;6.53;;
76591;SDS011;65481;47.600;19.682;2023-03-05T23:29:05;11.95;;;6.47;;
76591;SDS011;65481;47.600;19.682;2023-03-05T23:34:05;13.32;;;7.00;;
76591;SDS011;65481;47.600;19.682;2023-03-05T23:39:06;11.55;;;5.72;;
76591;SDS011;65481;47.600;19.682;2023-03-05T23:44:06;14.20;;;7.05;;
76591;SDS011;65481;47.600;19.682;2023-03-05T23:49:07;12.52;;;6.72;;
76591;SDS011;65481;47.600;19.682;2023-03-05T23:54:07;17.15;;;6.72;;
76591;SDS011;65481;47.600;19.682;2023-03-05T23:59:08;12.15;;;6.93;;
